createdAt,value
2023-05-24T00:03:16.846Z,97629.13
2023-05-24T00:07:21.641Z,97630.53
2023-05-24T00:11:25.061Z,97629.09
2023-05-24T00:15:28.244Z,97622.22
2023-05-24T00:19:31.596Z,97616.13
2023-05-24T00:23:37.389Z,97612.91
2023-05-24T00:27:40.733Z,97618.59
2023-05-24T00:31:43.735Z,97612.50
2023-05-24T00:35:47.560Z,97619.41
2023-05-24T00:39:52.220Z,97627.47
2023-05-24T00:43:55.598Z,97608.81
2023-05-24T00:47:58.880Z,97611.66
2023-05-24T00:52:02.695Z,97612.03
2023-05-24T00:56:08.682Z,97619.28
2023-05-24T01:00:13.089Z,97617.44
2023-05-24T01:04:18.480Z,97617.84
2023-05-24T01:08:38.688Z,97616.00
2023-05-24T01:12:55.172Z,97616.38
2023-05-24T01:17:05.910Z,97619.66
2023-05-24T01:21:24.498Z,97619.25
2023-05-24T01:25:47.041Z,97617.84
2023-05-24T01:29:53.592Z,97622.50
2023-05-24T01:33:56.829Z,97606.34
2023-05-24T01:38:01.565Z,97626.75
2023-05-24T01:42:13.222Z,97625.38
2023-05-24T01:46:24.149Z,97629.03
2023-05-24T01:50:33.136Z,97624.16
2023-05-24T01:54:44.938Z,97623.75
2023-05-24T01:58:54.545Z,97618.50
2023-05-24T02:02:59.413Z,97627.00
2023-05-24T02:07:02.880Z,97619.31
2023-05-24T02:11:06.283Z,97628.03
2023-05-24T02:15:11.114Z,97625.41
2023-05-24T02:19:17.337Z,97625.41
2023-05-24T02:23:20.838Z,97626.59
2023-05-24T02:27:25.221Z,97622.53
2023-05-24T02:31:29.311Z,97625.19
2023-05-24T02:35:34.519Z,97629.63
2023-05-24T02:39:37.968Z,97631.47
2023-05-24T02:43:41.129Z,97638.34
2023-05-24T02:47:44.642Z,97631.47
2023-05-24T02:51:49.323Z,97629.81
2023-05-24T02:55:52.670Z,97640.78
2023-05-24T02:59:58.221Z,97631.03
2023-05-24T03:04:02.160Z,97632.84
2023-05-24T03:08:07.983Z,97632.22
2023-05-24T03:12:11.573Z,97627.38
2023-05-24T03:16:15.080Z,97640.72
2023-05-24T03:20:18.947Z,97640.09
2023-05-24T03:24:23.454Z,97635.88
2023-05-24T03:28:28.892Z,97644.75
2023-05-24T03:32:32.110Z,97645.94
2023-05-24T03:36:35.949Z,97649.59
2023-05-24T03:40:42.182Z,97654.66
2023-05-24T03:44:45.512Z,97658.50
2023-05-24T03:48:50.007Z,97664.78
2023-05-24T03:52:53.550Z,97659.34
2023-05-24T03:56:58.230Z,97672.09
2023-05-24T04:01:02.760Z,97678.78
2023-05-24T04:05:06.120Z,97673.91
2023-05-24T04:09:10.896Z,97678.59
2023-05-24T04:13:15.669Z,97671.91
2023-05-24T04:17:19.395Z,97677.81
2023-05-24T04:21:24.780Z,97678.03
2023-05-24T04:25:28.687Z,97688.13
2023-05-24T04:29:34.090Z,97688.56
2023-05-24T04:33:37.688Z,97694.66
2023-05-24T04:37:42.083Z,97694.66
2023-05-24T04:41:45.742Z,97701.94
2023-05-24T04:45:50.759Z,97718.69
2023-05-24T04:49:54.930Z,97719.69
2023-05-24T04:54:01.764Z,97703.47
2023-05-24T04:58:06.447Z,97699.78
2023-05-24T05:02:11.163Z,97692.44
2023-05-24T05:06:15.594Z,97702.50
2023-05-24T05:10:18.977Z,97709.53
2023-05-24T05:14:22.270Z,97704.69
2023-05-24T05:18:27.586Z,97714.19
2023-05-24T05:22:31.523Z,97706.06
2023-05-24T05:26:35.739Z,97704.44
2023-05-24T05:30:39.029Z,97711.91
2023-05-24T05:34:43.591Z,97722.63
2023-05-24T05:38:48.547Z,97726.59
2023-05-24T05:42:51.841Z,97719.31
2023-05-24T05:46:55.111Z,97711.44
2023-05-24T05:50:59.670Z,97714.31
2023-05-24T05:55:03.306Z,97721.06
2023-05-24T05:59:06.642Z,97719.91
2023-05-24T06:03:10.377Z,97718.13
2023-05-24T06:07:14.833Z,97721.59
2023-05-24T06:11:19.060Z,97730.09
2023-05-24T06:15:23.244Z,97741.41
2023-05-24T06:19:27.428Z,97735.97
2023-05-24T06:23:32.298Z,97740.25
2023-05-24T06:27:36.878Z,97746.72
2023-05-24T06:31:40.336Z,97749.56
2023-05-24T06:35:43.875Z,97754.88
2023-05-24T06:39:49.143Z,97762.78
2023-05-24T06:43:52.331Z,97759.97
2023-05-24T06:47:55.452Z,97751.47
2023-05-24T06:51:59.118Z,97749.63
2023-05-24T06:56:04.277Z,97742.97
2023-05-24T07:00:12.582Z,97757.19
2023-05-24T07:04:15.770Z,97764.78
2023-05-24T07:08:22.140Z,97768.03
2023-05-24T07:12:26.596Z,97767.69
2023-05-24T07:16:29.630Z,97772.97
2023-05-24T07:20:32.906Z,97775.63
2023-05-24T07:24:36.711Z,97779.91
2023-05-24T07:28:41.962Z,97768.16
2023-05-24T07:32:46.016Z,97773.41
2023-05-24T07:36:49.655Z,97785.97
2023-05-24T07:40:53.805Z,97779.88
2023-05-24T07:44:58.543Z,97785.75
2023-05-24T07:49:01.788Z,97783.13
2023-05-24T07:53:05.481Z,97778.66
2023-05-24T07:57:10.951Z,97777.84
2023-05-24T08:01:17.067Z,97771.56
2023-05-24T08:05:20.392Z,97777.44
2023-05-24T08:09:24.155Z,97785.38
2023-05-24T08:13:27.355Z,97784.41
2023-05-24T08:17:32.165Z,97779.72
2023-05-24T08:21:35.918Z,97776.19
2023-05-24T08:25:39.207Z,97774.00
2023-05-24T08:29:42.631Z,97774.50
2023-05-24T08:33:50.433Z,97768.63
2023-05-24T08:37:55.195Z,97770.38
2023-05-24T08:42:08.700Z,97773.88
2023-05-24T08:46:15.839Z,97781.84
2023-05-24T08:50:23.093Z,97766.28
2023-05-24T08:54:26.733Z,97763.75
2023-05-24T08:58:30.615Z,97767.16
2023-05-24T09:02:34.606Z,97764.94
2023-05-24T09:06:39.594Z,97763.34
2023-05-24T09:10:53.952Z,97764.19
2023-05-24T09:14:59.055Z,97767.91
2023-05-24T09:19:03.840Z,97762.44
2023-05-24T09:23:08.783Z,97758.38
2023-05-24T09:27:12.399Z,97766.72
2023-05-24T09:31:15.901Z,97752.66
2023-05-24T09:35:19.790Z,97751.34
2023-05-24T09:39:24.539Z,97753.44
2023-05-24T09:43:30.732Z,97742.16
2023-05-24T09:47:35.555Z,97741.47
2023-05-24T09:51:39.793Z,97737.97
2023-05-24T09:55:44.924Z,97739.50
2023-05-24T09:59:48.944Z,97737.38
2023-05-24T10:03:55.616Z,97733.44
2023-05-24T10:07:59.204Z,97736.94
2023-05-24T10:12:06.266Z,97722.56
2023-05-24T10:16:09.487Z,97731.28
2023-05-24T10:20:13.536Z,97723.91
2023-05-24T10:24:23.167Z,97718.06
2023-05-24T10:28:28.578Z,97713.78
2023-05-24T10:32:33.852Z,97721.16
2023-05-24T10:36:40.673Z,97716.97
2023-05-24T10:40:45.272Z,97722.44
2023-05-24T10:44:49.778Z,97717.03
2023-05-24T10:49:03.165Z,97724.22
2023-05-24T10:53:14.834Z,97721.28
2023-05-24T10:57:26.054Z,97721.28
2023-05-24T11:01:32.326Z,97718.56
2023-05-24T11:05:37.422Z,97713.78
2023-05-24T11:09:46.521Z,97714.28
2023-05-24T11:13:51.089Z,97715.78
2023-05-24T11:18:17.533Z,97717.88
2023-05-24T11:22:22.883Z,97717.28
2023-05-24T11:26:26.236Z,97716.78
2023-05-24T11:30:29.934Z,97719.00
2023-05-24T11:34:35.218Z,97710.28
2023-05-24T11:38:38.811Z,97712.44
2023-05-24T11:42:46.427Z,97703.66
2023-05-24T11:46:49.936Z,97705.53
2023-05-24T11:50:54.725Z,97704.78
2023-05-24T11:54:58.343Z,97708.28
2023-05-24T11:59:11.408Z,97712.84
2023-05-24T12:03:14.938Z,97708.81
2023-05-24T12:07:19.663Z,97698.50
2023-05-24T12:11:23.506Z,97703.84
2023-05-24T12:15:26.753Z,97697.41
2023-05-24T12:19:35.916Z,97705.31
2023-05-24T12:23:41.338Z,97700.13
2023-05-24T12:27:48.299Z,97691.72
2023-05-24T12:31:52.231Z,97691.69
2023-05-24T12:35:56.539Z,97705.00
2023-05-24T12:40:01.890Z,97700.47
2023-05-24T12:44:05.255Z,97703.94
2023-05-24T12:48:08.854Z,97694.91
2023-05-24T12:52:12.831Z,97702.38
2023-05-24T12:56:17.666Z,97694.19
2023-05-24T13:00:23.255Z,97692.25
2023-05-24T13:04:28.241Z,97690.50
2023-05-24T13:08:32.020Z,97698.13
2023-05-24T13:12:37.187Z,97693.53
2023-05-24T13:16:40.494Z,97691.53
2023-05-24T13:20:43.860Z,97691.47
2023-05-24T13:24:47.428Z,97693.88
2023-05-24T13:32:56.490Z,97685.25
2023-05-24T13:37:00.198Z,97679.81
2023-05-24T13:41:04.118Z,97676.94
2023-05-24T13:45:08.857Z,97678.94
2023-05-24T13:49:14.404Z,97680.84
2023-05-24T13:53:17.772Z,97681.66
2023-05-24T13:57:23.382Z,97687.16
2023-05-24T14:01:28.537Z,97679.22
2023-05-24T14:05:33.671Z,97681.41
2023-05-24T14:09:37.102Z,97685.69
2023-05-24T14:14:20.378Z,97674.72
2023-05-24T14:18:09.890Z,97670.06
2023-05-24T14:22:14.855Z,97676.88
2023-05-24T14:26:18.808Z,97672.94
2023-05-24T14:30:22.837Z,97666.81
2023-05-24T14:34:27.029Z,97671.88
2023-05-24T14:38:32.025Z,97670.00
2023-05-24T14:42:35.204Z,97675.34
2023-05-24T14:46:41.600Z,97667.00
2023-05-24T14:50:45.146Z,97682.34
2023-05-24T14:54:49.858Z,97680.63
2023-05-24T14:58:55.727Z,97675.25
2023-05-24T15:02:58.699Z,97679.16
2023-05-24T15:07:02.077Z,97675.63
2023-05-24T15:11:08.293Z,97687.72
2023-05-24T15:15:12.578Z,97702.81
2023-05-24T15:19:16.049Z,97693.91
2023-05-24T15:23:21.232Z,97701.19
2023-05-24T15:27:25.918Z,97699.91
2023-05-24T15:31:29.708Z,97689.13
2023-05-24T15:35:33.134Z,97687.22
2023-05-24T15:39:37.228Z,97686.41
2023-05-24T15:43:41.598Z,97688.34
2023-05-24T15:47:44.804Z,97693.53
2023-05-24T15:52:03.780Z,97690.06
2023-05-24T15:56:08.474Z,97702.63
2023-05-24T16:00:15.856Z,97698.81
2023-05-24T16:04:19.111Z,97698.44
2023-05-24T16:08:28.085Z,97699.00
2023-05-24T16:12:33.048Z,97706.97
2023-05-24T16:16:38.195Z,97710.88
2023-05-24T16:20:41.647Z,97702.69
2023-05-24T16:24:45.606Z,97713.63
2023-05-24T16:28:48.999Z,97709.16
2023-05-24T16:32:54.051Z,97713.38
2023-05-24T16:36:57.762Z,97721.25
2023-05-24T16:41:02.828Z,97725.72
2023-05-24T16:45:07.323Z,97725.09
2023-05-24T16:49:12.313Z,97731.00
2023-05-24T16:53:15.660Z,97732.78
2023-05-24T16:57:18.905Z,97727.47
2023-05-24T17:01:22.572Z,97744.06
2023-05-24T17:05:27.260Z,97746.63
2023-05-24T17:09:30.542Z,97754.44
2023-05-24T17:13:34.566Z,97754.09
2023-05-24T17:17:38.540Z,97758.63
2023-05-24T17:21:43.753Z,97763.16
2023-05-24T17:25:46.903Z,97769.69
2023-05-24T17:29:50.095Z,97783.19
2023-05-24T17:33:53.715Z,97784.44
2023-05-24T17:37:58.444Z,97792.63
2023-05-24T17:42:03.062Z,97785.34
2023-05-24T17:46:08.088Z,97794.97
2023-05-24T17:50:12.052Z,97796.22
2023-05-24T17:54:18.741Z,97800.09
2023-05-24T17:58:21.826Z,97798.69
2023-05-24T18:02:25.345Z,97800.97
2023-05-24T18:06:28.505Z,97797.31
2023-05-24T18:10:34.101Z,97809.50
2023-05-24T18:14:38.367Z,97816.44
2023-05-24T18:18:44.401Z,97823.53
2023-05-24T18:22:47.640Z,97824.97
2023-05-24T18:26:52.295Z,97825.56
2023-05-24T18:30:56.188Z,97833.03
2023-05-24T18:34:59.480Z,97844.78
2023-05-24T18:39:03.685Z,97849.63
2023-05-24T18:43:08.338Z,97847.81
2023-05-24T18:47:12.241Z,97863.38
2023-05-24T18:51:15.586Z,97865.81
2023-05-24T18:55:19.017Z,97871.47
2023-05-24T18:59:29.059Z,97877.97
2023-05-24T19:03:32.554Z,97872.25
2023-05-24T19:07:36.626Z,97882.38
2023-05-24T19:11:41.077Z,97888.44
2023-05-24T19:15:45.893Z,97896.09
2023-05-24T19:19:51.861Z,97895.66
2023-05-24T19:23:55.337Z,97903.91
2023-05-24T19:28:00.777Z,97910.31
2023-05-24T19:32:07.574Z,97924.63
2023-05-24T19:36:12.603Z,97933.31
2023-05-24T19:40:15.923Z,97931.44
2023-05-24T19:44:19.364Z,97933.81
2023-05-24T19:48:25.075Z,97938.84
2023-05-24T19:52:28.460Z,97949.50
2023-05-24T19:56:32.380Z,97953.91
2023-05-24T20:00:35.988Z,97957.66
2023-05-24T20:04:42.453Z,97960.25
2023-05-24T20:08:48.069Z,97963.44
2023-05-24T20:12:51.568Z,97962.19
2023-05-24T20:16:54.772Z,97964.56
2023-05-24T20:21:00.294Z,97965.75
2023-05-24T20:25:03.553Z,97957.63
2023-05-24T20:29:07.073Z,97967.69
2023-05-24T20:33:10.226Z,97964.44
2023-05-24T20:37:18.225Z,97961.81
2023-05-24T20:41:21.362Z,97956.91
2023-05-24T20:45:24.877Z,97958.72
2023-05-24T20:49:29.255Z,97957.88
2023-05-24T20:53:33.870Z,97944.75
2023-05-24T20:57:37.111Z,97950.19
2023-05-24T21:01:40.906Z,97961.53
2023-05-24T21:05:44.742Z,97967.59
2023-05-24T21:09:50.531Z,97967.97
2023-05-24T21:13:53.594Z,97971.16
2023-05-24T21:17:56.970Z,97965.44
2023-05-24T21:22:00.419Z,97964.00
2023-05-24T21:26:05.168Z,97961.75
2023-05-24T21:30:09.757Z,97976.63
2023-05-24T21:34:13.254Z,97975.00
2023-05-24T21:38:16.764Z,97969.75
2023-05-24T21:46:45.524Z,97966.13
2023-05-24T21:50:48.832Z,97975.81
2023-05-24T21:54:52.296Z,97972.38
2023-05-24T21:58:57.015Z,97969.75
2023-05-24T22:03:00.562Z,97968.50
2023-05-24T22:07:03.780Z,97979.81
2023-05-24T22:11:08.193Z,97971.75
2023-05-24T22:15:13.492Z,97961.22
2023-05-24T22:19:20.286Z,97957.63
2023-05-24T22:23:28.577Z,97950.16
2023-05-24T22:27:32.307Z,97962.94
2023-05-24T22:31:37.177Z,97968.84
2023-05-24T22:35:40.622Z,97982.78
2023-05-24T22:39:45.685Z,97991.28
2023-05-24T22:43:48.924Z,97997.56
2023-05-24T22:47:55.107Z,97997.94
2023-05-24T22:51:59.001Z,98000.91
2023-05-24T22:56:02.504Z,98003.56
2023-05-24T23:00:08.509Z,97997.66
2023-05-24T23:04:21.036Z,97987.13
2023-05-24T23:08:26.009Z,97982.72
2023-05-24T23:12:29.480Z,97985.16
2023-05-24T23:16:34.363Z,97994.66
2023-05-24T23:20:40.411Z,97983.31
2023-05-24T23:24:44.116Z,97993.41
2023-05-24T23:28:47.323Z,97990.78
2023-05-24T23:32:50.812Z,97996.22
2023-05-24T23:36:55.753Z,97983.91
2023-05-24T23:40:59.152Z,97977.00
2023-05-24T23:45:02.679Z,97973.56
2023-05-24T23:49:05.883Z,97989.34
2023-05-24T23:53:10.663Z,97991.13
2023-05-24T23:57:15.865Z,97988.69
